sensor_id;sensor_type;location;lat;lon;timestamp;temperature;humidity
75705;DHT22;70013;44.726;37.760;2023-05-08T00:00:33;18.22;59.61
75705;DHT22;70013;44.726;37.760;2023-05-08T00:01:34;18.24;59.52
75705;DHT22;70013;44.726;37.760;2023-05-08T00:02:36;18.26;59.47
75705;DHT22;70013;44.726;37.760;2023-05-08T00:03:37;18.24;59.57
75705;DHT22;70013;44.726;37.760;2023-05-08T00:04:38;18.25;59.54
75705;DHT22;70013;44.726;37.760;2023-05-08T00:05:42;18.24;59.53
75705;DHT22;70013;44.726;37.760;2023-05-08T00:06:43;18.25;59.32
75705;DHT22;70013;44.726;37.760;2023-05-08T00:07:44;18.26;59.57
75705;DHT22;70013;44.726;37.760;2023-05-08T00:08:46;18.25;59.55
75705;DHT22;70013;44.726;37.760;2023-05-08T00:09:47;18.25;59.60
75705;DHT22;70013;44.726;37.760;2023-05-08T00:10:48;18.26;59.54
75705;DHT22;70013;44.726;37.760;2023-05-08T00:11:49;18.23;59.52
75705;DHT22;70013;44.726;37.760;2023-05-08T00:12:50;18.25;59.48
75705;DHT22;70013;44.726;37.760;2023-05-08T00:13:52;18.24;59.60
75705;DHT22;70013;44.726;37.760;2023-05-08T00:14:53;18.23;59.54
75705;DHT22;70013;44.726;37.760;2023-05-08T00:15:54;18.23;59.35
75705;DHT22;70013;44.726;37.760;2023-05-08T00:16:56;18.24;59.57
75705;DHT22;70013;44.726;37.760;2023-05-08T00:17:57;18.23;59.51
75705;DHT22;70013;44.726;37.760;2023-05-08T00:18:59;18.25;59.44
75705;DHT22;70013;44.726;37.760;2023-05-08T00:20:00;18.26;59.31
75705;DHT22;70013;44.726;37.760;2023-05-08T00:21:03;18.24;59.79
75705;DHT22;70013;44.726;37.760;2023-05-08T00:22:04;18.24;59.65
75705;DHT22;70013;44.726;37.760;2023-05-08T00:23:05;18.24;59.73
75705;DHT22;70013;44.726;37.760;2023-05-08T00:24:06;18.23;59.64
75705;DHT22;70013;44.726;37.760;2023-05-08T00:25:08;18.23;59.41
75705;DHT22;70013;44.726;37.760;2023-05-08T00:26:09;18.25;59.55
75705;DHT22;70013;44.726;37.760;2023-05-08T00:27:10;18.24;59.81
75705;DHT22;70013;44.726;37.760;2023-05-08T00:28:12;18.24;59.69
75705;DHT22;70013;44.726;37.760;2023-05-08T00:29:14;18.24;59.68
75705;DHT22;70013;44.726;37.760;2023-05-08T00:30:15;18.25;59.59
75705;DHT22;70013;44.726;37.760;2023-05-08T00:31:17;18.24;59.37
75705;DHT22;70013;44.726;37.760;2023-05-08T00:32:18;18.22;59.41
75705;DHT22;70013;44.726;37.760;2023-05-08T00:33:19;18.23;59.42
75705;DHT22;70013;44.726;37.760;2023-05-08T00:34:20;18.24;59.58
75705;DHT22;70013;44.726;37.760;2023-05-08T00:35:22;18.22;59.54
75705;DHT22;70013;44.726;37.760;2023-05-08T00:36:23;18.22;59.36
75705;DHT22;70013;44.726;37.760;2023-05-08T00:37:24;18.24;59.50
75705;DHT22;70013;44.726;37.760;2023-05-08T00:38:25;18.23;59.57
75705;DHT22;70013;44.726;37.760;2023-05-08T00:39:27;18.21;59.69
75705;DHT22;70013;44.726;37.760;2023-05-08T00:40:28;18.21;59.39
75705;DHT22;70013;44.726;37.760;2023-05-08T00:41:29;18.21;59.73
75705;DHT22;70013;44.726;37.760;2023-05-08T00:42:30;18.21;59.52
75705;DHT22;70013;44.726;37.760;2023-05-08T00:43:32;18.22;59.67
75705;DHT22;70013;44.726;37.760;2023-05-08T00:44:33;18.20;59.76
75705;DHT22;70013;44.726;37.760;2023-05-08T00:45:35;18.21;59.50
75705;DHT22;70013;44.726;37.760;2023-05-08T00:46:37;18.21;59.39
75705;DHT22;70013;44.726;37.760;2023-05-08T00:47:38;18.20;59.67
75705;DHT22;70013;44.726;37.760;2023-05-08T00:48:39;18.20;59.66
75705;DHT22;70013;44.726;37.760;2023-05-08T00:49:41;18.20;59.64
75705;DHT22;70013;44.726;37.760;2023-05-08T00:50:42;18.19;59.80
75705;DHT22;70013;44.726;37.760;2023-05-08T00:51:44;18.19;59.61
75705;DHT22;70013;44.726;37.760;2023-05-08T00:52:46;18.19;59.81
75705;DHT22;70013;44.726;37.760;2023-05-08T00:53:48;18.18;59.72
75705;DHT22;70013;44.726;37.760;2023-05-08T00:54:49;18.18;59.86
75705;DHT22;70013;44.726;37.760;2023-05-08T00:55:50;18.18;59.80
75705;DHT22;70013;44.726;37.760;2023-05-08T00:56:53;18.17;59.76
75705;DHT22;70013;44.726;37.760;2023-05-08T00:57:55;18.15;60.03
75705;DHT22;70013;44.726;37.760;2023-05-08T00:58:56;18.14;59.65
75705;DHT22;70013;44.726;37.760;2023-05-08T00:59:59;18.17;59.81
75705;DHT22;70013;44.726;37.760;2023-05-08T01:01:01;18.13;59.89
75705;DHT22;70013;44.726;37.760;2023-05-08T01:02:03;18.14;59.61
75705;DHT22;70013;44.726;37.760;2023-05-08T01:03:05;18.15;59.71
75705;DHT22;70013;44.726;37.760;2023-05-08T01:04:06;18.14;59.73
75705;DHT22;70013;44.726;37.760;2023-05-08T01:05:08;18.15;59.74
75705;DHT22;70013;44.726;37.760;2023-05-08T01:06:09;18.17;59.44
75705;DHT22;70013;44.726;37.760;2023-05-08T01:07:10;18.17;59.69
75705;DHT22;70013;44.726;37.760;2023-05-08T01:08:12;18.15;59.61
75705;DHT22;70013;44.726;37.760;2023-05-08T01:09:13;18.17;59.49
75705;DHT22;70013;44.726;37.760;2023-05-08T01:10:14;18.14;59.77
75705;DHT22;70013;44.726;37.760;2023-05-08T01:12:23;18.15;59.69
75705;DHT22;70013;44.726;37.760;2023-05-08T01:13:34;18.17;59.64
75705;DHT22;70013;44.726;37.760;2023-05-08T01:14:43;18.15;59.76
75705;DHT22;70013;44.726;37.760;2023-05-08T01:16:05;18.14;59.73
75705;DHT22;70013;44.726;37.760;2023-05-08T01:17:15;18.13;59.75
75705;DHT22;70013;44.726;37.760;2023-05-08T01:18:23;18.12;59.63
75705;DHT22;70013;44.726;37.760;2023-05-08T01:24:05;18.13;59.70
75705;DHT22;70013;44.726;37.760;2023-05-08T01:27:21;18.11;59.81
75705;DHT22;70013;44.726;37.760;2023-05-08T01:32:24;18.05;60.01
75705;DHT22;70013;44.726;37.760;2023-05-08T01:33:34;18.04;60.01
75705;DHT22;70013;44.726;37.760;2023-05-08T01:34:43;18.03;59.76
75705;DHT22;70013;44.726;37.760;2023-05-08T01:35:46;18.03;60.02
75705;DHT22;70013;44.726;37.760;2023-05-08T01:36:51;18.00;60.08
75705;DHT22;70013;44.726;37.760;2023-05-08T01:39:07;18.03;59.79
75705;DHT22;70013;44.726;37.760;2023-05-08T01:40:11;18.02;59.81
75705;DHT22;70013;44.726;37.760;2023-05-08T01:41:22;18.02;59.88
75705;DHT22;70013;44.726;37.760;2023-05-08T01:42:28;17.96;60.09
75705;DHT22;70013;44.726;37.760;2023-05-08T01:43:44;17.98;59.88
75705;DHT22;70013;44.726;37.760;2023-05-08T01:44:50;17.95;59.84
75705;DHT22;70013;44.726;37.760;2023-05-08T01:45:53;17.91;59.96
75705;DHT22;70013;44.726;37.760;2023-05-08T01:46:55;17.91;59.79
75705;DHT22;70013;44.726;37.760;2023-05-08T01:48:03;17.91;60.03
75705;DHT22;70013;44.726;37.760;2023-05-08T01:49:07;17.91;60.03
75705;DHT22;70013;44.726;37.760;2023-05-08T01:50:17;17.90;60.02
75705;DHT22;70013;44.726;37.760;2023-05-08T01:51:21;17.90;60.20
75705;DHT22;70013;44.726;37.760;2023-05-08T01:53:58;17.90;59.76
75705;DHT22;70013;44.726;37.760;2023-05-08T01:55:02;17.88;59.77
75705;DHT22;70013;44.726;37.760;2023-05-08T01:56:07;17.88;59.57
75705;DHT22;70013;44.726;37.760;2023-05-08T01:57:11;17.88;59.70
75705;DHT22;70013;44.726;37.760;2023-05-08T01:58:13;17.85;59.92
75705;DHT22;70013;44.726;37.760;2023-05-08T01:59:15;17.84;59.98
75705;DHT22;70013;44.726;37.760;2023-05-08T02:00:19;17.84;60.15
75705;DHT22;70013;44.726;37.760;2023-05-08T02:01:22;17.82;60.05
75705;DHT22;70013;44.726;37.760;2023-05-08T02:02:24;17.82;60.20
75705;DHT22;70013;44.726;37.760;2023-05-08T02:03:26;17.81;60.30
75705;DHT22;70013;44.726;37.760;2023-05-08T02:04:29;17.79;60.31
75705;DHT22;70013;44.726;37.760;2023-05-08T02:05:30;17.82;60.18
75705;DHT22;70013;44.726;37.760;2023-05-08T02:06:32;17.81;60.32
75705;DHT22;70013;44.726;37.760;2023-05-08T02:07:34;17.80;60.46
75705;DHT22;70013;44.726;37.760;2023-05-08T02:08:37;17.77;60.58
75705;DHT22;70013;44.726;37.760;2023-05-08T02:09:40;17.76;60.51
75705;DHT22;70013;44.726;37.760;2023-05-08T02:10:42;17.77;60.33
75705;DHT22;70013;44.726;37.760;2023-05-08T02:11:44;17.77;60.40
75705;DHT22;70013;44.726;37.760;2023-05-08T02:12:50;17.74;60.70
75705;DHT22;70013;44.726;37.760;2023-05-08T02:13:53;17.73;60.60
75705;DHT22;70013;44.726;37.760;2023-05-08T02:14:55;17.76;60.36
75705;DHT22;70013;44.726;37.760;2023-05-08T02:15:56;17.73;60.78
75705;DHT22;70013;44.726;37.760;2023-05-08T02:16:58;17.72;60.95
75705;DHT22;70013;44.726;37.760;2023-05-08T02:18:01;17.72;60.56
75705;DHT22;70013;44.726;37.760;2023-05-08T02:19:04;17.74;60.60
75705;DHT22;70013;44.726;37.760;2023-05-08T02:20:06;17.72;60.90
75705;DHT22;70013;44.726;37.760;2023-05-08T02:21:14;17.74;60.80
75705;DHT22;70013;44.726;37.760;2023-05-08T02:22:16;17.72;60.85
75705;DHT22;70013;44.726;37.760;2023-05-08T02:23:18;17.73;60.75
75705;DHT22;70013;44.726;37.760;2023-05-08T02:24:20;17.75;60.88
75705;DHT22;70013;44.726;37.760;2023-05-08T02:25:22;17.74;60.88
75705;DHT22;70013;44.726;37.760;2023-05-08T02:26:24;17.70;60.76
75705;DHT22;70013;44.726;37.760;2023-05-08T02:27:26;17.70;60.47
75705;DHT22;70013;44.726;37.760;2023-05-08T02:28:28;17.70;60.73
75705;DHT22;70013;44.726;37.760;2023-05-08T02:29:30;17.68;60.89
75705;DHT22;70013;44.726;37.760;2023-05-08T02:30:31;17.70;60.54
75705;DHT22;70013;44.726;37.760;2023-05-08T02:31:33;17.69;60.57
75705;DHT22;70013;44.726;37.760;2023-05-08T02:32:36;17.69;60.64
75705;DHT22;70013;44.726;37.760;2023-05-08T02:33:39;17.68;60.65
75705;DHT22;70013;44.726;37.760;2023-05-08T02:34:41;17.69;60.48
75705;DHT22;70013;44.726;37.760;2023-05-08T02:35:43;17.62;61.20
75705;DHT22;70013;44.726;37.760;2023-05-08T02:36:44;17.55;61.44
75705;DHT22;70013;44.726;37.760;2023-05-08T02:37:48;17.53;61.47
75705;DHT22;70013;44.726;37.760;2023-05-08T02:38:51;17.54;61.27
75705;DHT22;70013;44.726;37.760;2023-05-08T02:39:54;17.56;61.26
75705;DHT22;70013;44.726;37.760;2023-05-08T02:40:58;17.59;61.22
75705;DHT22;70013;44.726;37.760;2023-05-08T02:42:01;17.60;61.10
75705;DHT22;70013;44.726;37.760;2023-05-08T02:43:04;17.59;61.28
75705;DHT22;70013;44.726;37.760;2023-05-08T02:44:05;17.59;61.47
75705;DHT22;70013;44.726;37.760;2023-05-08T02:45:07;17.59;61.30
75705;DHT22;70013;44.726;37.760;2023-05-08T02:46:13;17.60;61.38
75705;DHT22;70013;44.726;37.760;2023-05-08T02:47:22;17.60;61.28
75705;DHT22;70013;44.726;37.760;2023-05-08T02:48:27;17.62;61.22
75705;DHT22;70013;44.726;37.760;2023-05-08T02:51:43;17.65;61.50
75705;DHT22;70013;44.726;37.760;2023-05-08T02:52:50;17.63;61.52
75705;DHT22;70013;44.726;37.760;2023-05-08T02:54:09;17.63;61.58
75705;DHT22;70013;44.726;37.760;2023-05-08T02:55:14;17.64;61.46
75705;DHT22;70013;44.726;37.760;2023-05-08T02:56:21;17.64;61.54
75705;DHT22;70013;44.726;37.760;2023-05-08T02:57:36;17.65;61.60
75705;DHT22;70013;44.726;37.760;2023-05-08T02:59:43;17.50;61.45
75705;DHT22;70013;44.726;37.760;2023-05-08T03:00:51;17.54;61.54
75705;DHT22;70013;44.726;37.760;2023-05-08T03:02:08;17.56;61.57
75705;DHT22;70013;44.726;37.760;2023-05-08T03:03:12;17.49;62.05
75705;DHT22;70013;44.726;37.760;2023-05-08T03:04:33;17.50;61.86
75705;DHT22;70013;44.726;37.760;2023-05-08T03:05:36;17.45;62.29
75705;DHT22;70013;44.726;37.760;2023-05-08T03:06:43;17.46;62.17
75705;DHT22;70013;44.726;37.760;2023-05-08T03:07:46;17.48;62.11
75705;DHT22;70013;44.726;37.760;2023-05-08T03:08:50;17.51;62.07
75705;DHT22;70013;44.726;37.760;2023-05-08T03:09:56;17.54;61.85
75705;DHT22;70013;44.726;37.760;2023-05-08T03:11:00;17.50;62.29
75705;DHT22;70013;44.726;37.760;2023-05-08T03:12:02;17.50;62.18
75705;DHT22;70013;44.726;37.760;2023-05-08T03:13:06;17.51;62.20
75705;DHT22;70013;44.726;37.760;2023-05-08T03:14:09;17.54;61.84
75705;DHT22;70013;44.726;37.760;2023-05-08T03:16:19;17.58;62.12
75705;DHT22;70013;44.726;37.760;2023-05-08T03:17:22;17.55;62.24
75705;DHT22;70013;44.726;37.760;2023-05-08T03:18:25;17.56;62.28
75705;DHT22;70013;44.726;37.760;2023-05-08T03:19:35;17.58;62.17
75705;DHT22;70013;44.726;37.760;2023-05-08T03:20:42;17.56;62.31
75705;DHT22;70013;44.726;37.760;2023-05-08T03:21:44;17.58;62.37
75705;DHT22;70013;44.726;37.760;2023-05-08T03:22:46;17.61;61.95
75705;DHT22;70013;44.726;37.760;2023-05-08T03:23:50;17.61;62.01
75705;DHT22;70013;44.726;37.760;2023-05-08T03:24:51;17.58;62.34
75705;DHT22;70013;44.726;37.760;2023-05-08T03:25:53;17.54;62.66
75705;DHT22;70013;44.726;37.760;2023-05-08T03:26:55;17.54;62.59
75705;DHT22;70013;44.726;37.760;2023-05-08T03:27:56;17.54;62.59
75705;DHT22;70013;44.726;37.760;2023-05-08T03:28:58;17.60;62.16
75705;DHT22;70013;44.726;37.760;2023-05-08T03:30:04;17.60;62.01
75705;DHT22;70013;44.726;37.760;2023-05-08T03:31:08;17.56;62.02
75705;DHT22;70013;44.726;37.760;2023-05-08T03:32:10;17.60;62.28
75705;DHT22;70013;44.726;37.760;2023-05-08T03:33:11;17.62;62.11
75705;DHT22;70013;44.726;37.760;2023-05-08T03:34:13;17.61;61.92
75705;DHT22;70013;44.726;37.760;2023-05-08T03:35:15;17.62;61.70
75705;DHT22;70013;44.726;37.760;2023-05-08T03:36:17;17.63;62.04
75705;DHT22;70013;44.726;37.760;2023-05-08T03:37:19;17.62;62.00
75705;DHT22;70013;44.726;37.760;2023-05-08T03:38:20;17.65;62.02
75705;DHT22;70013;44.726;37.760;2023-05-08T03:39:23;17.66;61.66
75705;DHT22;70013;44.726;37.760;2023-05-08T03:40:26;17.67;62.02
75705;DHT22;70013;44.726;37.760;2023-05-08T03:41:27;17.66;62.12
75705;DHT22;70013;44.726;37.760;2023-05-08T03:42:29;17.65;62.33
75705;DHT22;70013;44.726;37.760;2023-05-08T03:43:31;17.63;62.61
75705;DHT22;70013;44.726;37.760;2023-05-08T03:44:32;17.64;62.20
75705;DHT22;70013;44.726;37.760;2023-05-08T03:45:34;17.65;62.14
75705;DHT22;70013;44.726;37.760;2023-05-08T03:46:36;17.66;61.96
75705;DHT22;70013;44.726;37.760;2023-05-08T03:47:38;17.68;62.07
75705;DHT22;70013;44.726;37.760;2023-05-08T03:48:40;17.68;62.31
75705;DHT22;70013;44.726;37.760;2023-05-08T03:49:42;17.68;62.31
75705;DHT22;70013;44.726;37.760;2023-05-08T03:50:45;17.70;62.29
75705;DHT22;70013;44.726;37.760;2023-05-08T03:51:47;17.73;62.08
75705;DHT22;70013;44.726;37.760;2023-05-08T03:52:49;17.75;61.91
75705;DHT22;70013;44.726;37.760;2023-05-08T03:53:50;17.78;61.79
75705;DHT22;70013;44.726;37.760;2023-05-08T03:54:52;17.75;61.99
75705;DHT22;70013;44.726;37.760;2023-05-08T03:55:53;17.73;61.79
75705;DHT22;70013;44.726;37.760;2023-05-08T03:56:55;17.73;61.88
75705;DHT22;70013;44.726;37.760;2023-05-08T03:57:59;17.76;61.70
75705;DHT22;70013;44.726;37.760;2023-05-08T04:00:07;17.76;61.69
75705;DHT22;70013;44.726;37.760;2023-05-08T04:01:21;17.78;61.78
75705;DHT22;70013;44.726;37.760;2023-05-08T04:02:28;17.79;61.86
75705;DHT22;70013;44.726;37.760;2023-05-08T04:04:40;17.82;61.92
75705;DHT22;70013;44.726;37.760;2023-05-08T04:05:47;17.83;61.98
75705;DHT22;70013;44.726;37.760;2023-05-08T04:08:27;17.87;62.11
75705;DHT22;70013;44.726;37.760;2023-05-08T04:09:33;17.88;62.02
75705;DHT22;70013;44.726;37.760;2023-05-08T04:10:36;17.85;61.67
75705;DHT22;70013;44.726;37.760;2023-05-08T04:13:44;17.87;62.01
75705;DHT22;70013;44.726;37.760;2023-05-08T04:14:54;17.89;61.93
75705;DHT22;70013;44.726;37.760;2023-05-08T04:16:12;17.92;61.85
75705;DHT22;70013;44.726;37.760;2023-05-08T04:17:21;17.92;61.56
75705;DHT22;70013;44.726;37.760;2023-05-08T04:18:24;17.94;61.64
75705;DHT22;70013;44.726;37.760;2023-05-08T04:19:28;17.94;61.54
75705;DHT22;70013;44.726;37.760;2023-05-08T04:20:30;17.96;61.63
75705;DHT22;70013;44.726;37.760;2023-05-08T04:21:33;17.97;61.87
75705;DHT22;70013;44.726;37.760;2023-05-08T04:22:36;17.99;61.83
75705;DHT22;70013;44.726;37.760;2023-05-08T04:23:39;17.99;61.54
75705;DHT22;70013;44.726;37.760;2023-05-08T04:24:44;18.02;61.83
75705;DHT22;70013;44.726;37.760;2023-05-08T04:25:48;18.03;61.75
75705;DHT22;70013;44.726;37.760;2023-05-08T04:26:51;18.03;61.72
75705;DHT22;70013;44.726;37.760;2023-05-08T04:27:53;18.03;61.71
75705;DHT22;70013;44.726;37.760;2023-05-08T04:28:56;18.06;61.64
75705;DHT22;70013;44.726;37.760;2023-05-08T04:29:57;18.07;61.71
75705;DHT22;70013;44.726;37.760;2023-05-08T04:30:59;18.08;61.50
75705;DHT22;70013;44.726;37.760;2023-05-08T04:32:01;18.09;61.54
75705;DHT22;70013;44.726;37.760;2023-05-08T04:33:03;18.09;61.54
75705;DHT22;70013;44.726;37.760;2023-05-08T04:34:05;18.11;61.34
75705;DHT22;70013;44.726;37.760;2023-05-08T04:35:09;18.14;61.36
75705;DHT22;70013;44.726;37.760;2023-05-08T04:36:13;18.14;61.44
75705;DHT22;70013;44.726;37.760;2023-05-08T04:37:26;18.11;61.69
75705;DHT22;70013;44.726;37.760;2023-05-08T04:38:28;18.10;61.63
75705;DHT22;70013;44.726;37.760;2023-05-08T04:39:29;18.11;61.73
75705;DHT22;70013;44.726;37.760;2023-05-08T04:40:31;18.15;61.18
75705;DHT22;70013;44.726;37.760;2023-05-08T04:41:32;18.18;61.55
75705;DHT22;70013;44.726;37.760;2023-05-08T04:42:35;18.20;61.44
75705;DHT22;70013;44.726;37.760;2023-05-08T04:43:37;18.19;61.38
75705;DHT22;70013;44.726;37.760;2023-05-08T04:44:40;18.21;61.38
75705;DHT22;70013;44.726;37.760;2023-05-08T04:45:41;18.22;61.14
75705;DHT22;70013;44.726;37.760;2023-05-08T04:46:42;18.24;61.19
75705;DHT22;70013;44.726;37.760;2023-05-08T04:47:44;18.26;61.10
75705;DHT22;70013;44.726;37.760;2023-05-08T04:48:45;18.28;61.09
75705;DHT22;70013;44.726;37.760;2023-05-08T04:49:46;18.30;61.07
75705;DHT22;70013;44.726;37.760;2023-05-08T04:50:47;18.34;60.96
75705;DHT22;70013;44.726;37.760;2023-05-08T04:51:48;18.34;61.11
75705;DHT22;70013;44.726;37.760;2023-05-08T04:52:50;18.35;61.13
75705;DHT22;70013;44.726;37.760;2023-05-08T04:53:51;18.37;61.05
75705;DHT22;70013;44.726;37.760;2023-05-08T04:54:52;18.37;61.05
75705;DHT22;70013;44.726;37.760;2023-05-08T04:55:53;18.39;61.02
75705;DHT22;70013;44.726;37.760;2023-05-08T04:56:54;18.40;61.17
75705;DHT22;70013;44.726;37.760;2023-05-08T04:57:56;18.41;60.94
75705;DHT22;70013;44.726;37.760;2023-05-08T04:58:57;18.42;60.93
75705;DHT22;70013;44.726;37.760;2023-05-08T04:59:58;18.42;61.06
75705;DHT22;70013;44.726;37.760;2023-05-08T05:01:02;18.43;61.02
75705;DHT22;70013;44.726;37.760;2023-05-08T05:02:04;18.44;61.00
75705;DHT22;70013;44.726;37.760;2023-05-08T05:03:08;18.47;60.95
75705;DHT22;70013;44.726;37.760;2023-05-08T05:04:09;18.47;61.03
75705;DHT22;70013;44.726;37.760;2023-05-08T05:05:11;18.48;60.90
75705;DHT22;70013;44.726;37.760;2023-05-08T05:06:12;18.52;60.93
75705;DHT22;70013;44.726;37.760;2023-05-08T05:07:13;18.52;61.05
75705;DHT22;70013;44.726;37.760;2023-05-08T05:08:14;18.50;61.06
75705;DHT22;70013;44.726;37.760;2023-05-08T05:09:15;18.53;61.12
75705;DHT22;70013;44.726;37.760;2023-05-08T05:10:17;18.53;60.75
75705;DHT22;70013;44.726;37.760;2023-05-08T05:11:18;18.51;61.04
75705;DHT22;70013;44.726;37.760;2023-05-08T05:12:19;18.52;60.83
75705;DHT22;70013;44.726;37.760;2023-05-08T05:13:20;18.52;60.77
75705;DHT22;70013;44.726;37.760;2023-05-08T05:14:21;18.55;60.80
75705;DHT22;70013;44.726;37.760;2023-05-08T05:15:23;18.54;60.60
75705;DHT22;70013;44.726;37.760;2023-05-08T05:16:24;18.55;60.72
75705;DHT22;70013;44.726;37.760;2023-05-08T05:17:26;18.57;60.48
75705;DHT22;70013;44.726;37.760;2023-05-08T05:18:27;18.59;60.68
75705;DHT22;70013;44.726;37.760;2023-05-08T05:19:28;18.59;60.72
75705;DHT22;70013;44.726;37.760;2023-05-08T05:20:30;18.61;60.52
75705;DHT22;70013;44.726;37.760;2023-05-08T05:21:31;18.62;60.70
75705;DHT22;70013;44.726;37.760;2023-05-08T05:22:33;18.64;60.45
75705;DHT22;70013;44.726;37.760;2023-05-08T05:23:34;18.65;60.54
75705;DHT22;70013;44.726;37.760;2023-05-08T05:24:35;18.65;60.68
75705;DHT22;70013;44.726;37.760;2023-05-08T05:25:37;18.67;60.61
75705;DHT22;70013;44.726;37.760;2023-05-08T05:26:39;18.68;60.64
75705;DHT22;70013;44.726;37.760;2023-05-08T05:27:41;18.70;60.74
75705;DHT22;70013;44.726;37.760;2023-05-08T05:28:42;18.70;60.93
75705;DHT22;70013;44.726;37.760;2023-05-08T05:29:44;18.71;60.74
75705;DHT22;70013;44.726;37.760;2023-05-08T05:30:46;18.72;60.77
75705;DHT22;70013;44.726;37.760;2023-05-08T05:31:48;18.74;60.43
75705;DHT22;70013;44.726;37.760;2023-05-08T05:32:50;18.74;60.25
75705;DHT22;70013;44.726;37.760;2023-05-08T05:33:51;18.76;60.15
75705;DHT22;70013;44.726;37.760;2023-05-08T05:34:53;18.78;60.09
75705;DHT22;70013;44.726;37.760;2023-05-08T05:35:55;18.79;60.43
75705;DHT22;70013;44.726;37.760;2023-05-08T05:36:57;18.79;60.31
75705;DHT22;70013;44.726;37.760;2023-05-08T05:37:59;18.78;60.47
75705;DHT22;70013;44.726;37.760;2023-05-08T05:39:00;18.80;60.30
75705;DHT22;70013;44.726;37.760;2023-05-08T05:40:01;18.81;60.70
75705;DHT22;70013;44.726;37.760;2023-05-08T05:41:05;18.80;60.21
75705;DHT22;70013;44.726;37.760;2023-05-08T05:42:06;18.82;60.41
75705;DHT22;70013;44.726;37.760;2023-05-08T05:43:08;18.82;60.28
75705;DHT22;70013;44.726;37.760;2023-05-08T05:44:09;18.83;60.19
75705;DHT22;70013;44.726;37.760;2023-05-08T05:45:11;18.83;60.44
75705;DHT22;70013;44.726;37.760;2023-05-08T05:46:13;18.84;60.20
75705;DHT22;70013;44.726;37.760;2023-05-08T05:47:15;18.86;60.25
75705;DHT22;70013;44.726;37.760;2023-05-08T05:48:16;18.87;60.18
75705;DHT22;70013;44.726;37.760;2023-05-08T05:49:17;18.89;60.12
75705;DHT22;70013;44.726;37.760;2023-05-08T05:50:19;18.89;60.29
75705;DHT22;70013;44.726;37.760;2023-05-08T05:51:21;18.89;60.41
75705;DHT22;70013;44.726;37.760;2023-05-08T05:52:23;18.91;60.23
75705;DHT22;70013;44.726;37.760;2023-05-08T05:53:24;18.93;60.28
75705;DHT22;70013;44.726;37.760;2023-05-08T05:54:25;18.93;60.47
75705;DHT22;70013;44.726;37.760;2023-05-08T05:55:27;18.93;60.22
75705;DHT22;70013;44.726;37.760;2023-05-08T05:56:28;18.95;60.29
75705;DHT22;70013;44.726;37.760;2023-05-08T05:57:30;18.97;60.34
75705;DHT22;70013;44.726;37.760;2023-05-08T05:58:31;18.98;60.35
75705;DHT22;70013;44.726;37.760;2023-05-08T05:59:33;18.98;60.20
75705;DHT22;70013;44.726;37.760;2023-05-08T06:00:34;19.00;60.25
75705;DHT22;70013;44.726;37.760;2023-05-08T06:01:35;19.01;60.12
75705;DHT22;70013;44.726;37.760;2023-05-08T06:02:36;19.02;60.12
75705;DHT22;70013;44.726;37.760;2023-05-08T06:03:38;19.03;60.09
75705;DHT22;70013;44.726;37.760;2023-05-08T06:04:40;19.02;60.25
75705;DHT22;70013;44.726;37.760;2023-05-08T06:05:41;19.07;60.24
75705;DHT22;70013;44.726;37.760;2023-05-08T06:06:43;19.07;60.22
75705;DHT22;70013;44.726;37.760;2023-05-08T06:07:44;19.07;60.28
75705;DHT22;70013;44.726;37.760;2023-05-08T06:08:46;19.09;60.02
75705;DHT22;70013;44.726;37.760;2023-05-08T06:09:48;19.10;60.25
75705;DHT22;70013;44.726;37.760;2023-05-08T06:10:51;19.10;60.05
75705;DHT22;70013;44.726;37.760;2023-05-08T06:11:52;19.11;59.90
75705;DHT22;70013;44.726;37.760;2023-05-08T06:12:53;19.12;59.89
75705;DHT22;70013;44.726;37.760;2023-05-08T06:13:56;19.13;60.25
75705;DHT22;70013;44.726;37.760;2023-05-08T06:14:57;19.14;60.01
75705;DHT22;70013;44.726;37.760;2023-05-08T06:15:58;19.14;59.83
75705;DHT22;70013;44.726;37.760;2023-05-08T06:17:00;19.15;59.88
75705;DHT22;70013;44.726;37.760;2023-05-08T06:18:01;19.16;59.87
75705;DHT22;70013;44.726;37.760;2023-05-08T06:19:02;19.16;59.84
75705;DHT22;70013;44.726;37.760;2023-05-08T06:20:03;19.17;60.00
75705;DHT22;70013;44.726;37.760;2023-05-08T06:21:05;19.17;60.07
75705;DHT22;70013;44.726;37.760;2023-05-08T06:22:06;19.17;59.90
75705;DHT22;70013;44.726;37.760;2023-05-08T06:23:07;19.18;60.04
75705;DHT22;70013;44.726;37.760;2023-05-08T06:24:09;19.18;60.02
75705;DHT22;70013;44.726;37.760;2023-05-08T06:25:11;19.18;59.90
75705;DHT22;70013;44.726;37.760;2023-05-08T06:26:12;19.18;60.18
75705;DHT22;70013;44.726;37.760;2023-05-08T06:27:13;19.17;59.98
75705;DHT22;70013;44.726;37.760;2023-05-08T06:28:15;19.21;60.05
75705;DHT22;70013;44.726;37.760;2023-05-08T06:29:16;19.20;60.09
75705;DHT22;70013;44.726;37.760;2023-05-08T06:30:17;19.20;60.01
75705;DHT22;70013;44.726;37.760;2023-05-08T06:31:18;19.21;59.96
75705;DHT22;70013;44.726;37.760;2023-05-08T06:32:19;19.20;60.17
75705;DHT22;70013;44.726;37.760;2023-05-08T06:33:21;19.18;60.16
75705;DHT22;70013;44.726;37.760;2023-05-08T06:34:22;19.20;59.99
75705;DHT22;70013;44.726;37.760;2023-05-08T06:35:23;19.20;59.98
75705;DHT22;70013;44.726;37.760;2023-05-08T06:36:24;19.22;59.80
75705;DHT22;70013;44.726;37.760;2023-05-08T06:37:27;19.20;60.25
75705;DHT22;70013;44.726;37.760;2023-05-08T06:38:28;19.21;60.13
75705;DHT22;70013;44.726;37.760;2023-05-08T06:39:30;19.21;60.01
75705;DHT22;70013;44.726;37.760;2023-05-08T06:40:31;19.22;59.71
75705;DHT22;70013;44.726;37.760;2023-05-08T06:41:32;19.23;59.79
75705;DHT22;70013;44.726;37.760;2023-05-08T06:42:33;19.22;59.81
75705;DHT22;70013;44.726;37.760;2023-05-08T06:43:34;19.24;59.99
75705;DHT22;70013;44.726;37.760;2023-05-08T06:44:36;19.24;59.97
75705;DHT22;70013;44.726;37.760;2023-05-08T06:45:37;19.25;60.12
75705;DHT22;70013;44.726;37.760;2023-05-08T06:46:38;19.23;60.41
75705;DHT22;70013;44.726;37.760;2023-05-08T06:47:39;19.25;60.14
75705;DHT22;70013;44.726;37.760;2023-05-08T06:48:40;19.26;60.12
75705;DHT22;70013;44.726;37.760;2023-05-08T06:49:42;19.26;59.96
75705;DHT22;70013;44.726;37.760;2023-05-08T06:50:43;19.25;59.93
75705;DHT22;70013;44.726;37.760;2023-05-08T06:51:44;19.28;59.96
75705;DHT22;70013;44.726;37.760;2023-05-08T06:52:45;19.28;59.83
75705;DHT22;70013;44.726;37.760;2023-05-08T06:53:46;19.29;59.82
75705;DHT22;70013;44.726;37.760;2023-05-08T06:54:48;19.30;59.83